CheckWX is a tool to help pilots better visualize weather data.  It is not intended as a substitute for an official pre-flight weather briefing.

19:15:55 UTC

EHWO METAR
Woensdrecht Air Base Airport
Bergen Op Zoom, The Netherlands
Current

21 mins ago

EHWO 261855Z AUTO 24014KT 210V270 9999 SCT100 OVC210 17/11 Q1010 BLU
Observed
May-26 @ 18:55 UTC
Wind
  • 240° at 14 KTS
Visibility
10,000+ meters
Flight Rules
VFR
Cloud Levels
  • Scattered at 10,000' AGL
  • Overcast at 21,000' AGL
Temperature
17°C / 63°F
Dewpoint
11°C / 52°F
Humidity
68%
Altimeter
29.82" Hg
Pressure
1009.92 hPa
Previous

51 mins ago

EHWO 261825Z AUTO 24015KT 210V280 9999 OVC150 18/10 Q1010 BLU
Observed
May-26 @ 18:25 UTC
Wind
  • 240° at 15 KTS
Visibility
10,000+ meters
Flight Rules
VFR
Cloud Levels
  • Overcast at 15,000' AGL
Temperature
18°C / 64°F
Dewpoint
10°C / 50°F
Humidity
60%
Altimeter
29.82" Hg
Pressure
1009.92 hPa
Previous

1 hour ago

EHWO 261755Z AUTO 24016KT 210V270 9999 OVC140 18/10 Q1010 BLU
Observed
May-26 @ 17:55 UTC
Wind
  • 240° at 16 KTS
Visibility
10,000+ meters
Flight Rules
VFR
Cloud Levels
  • Overcast at 14,000' AGL
Temperature
18°C / 64°F
Dewpoint
10°C / 50°F
Humidity
60%
Altimeter
29.82" Hg
Pressure
1009.92 hPa